createdAt,value
2022-12-02T00:01:47.006Z,38.35
2022-12-02T00:06:41.251Z,40.13
2022-12-02T00:11:34.243Z,38.25
2022-12-02T00:16:28.114Z,38.90
2022-12-02T00:21:22.174Z,39.50
2022-12-02T00:26:16.047Z,40.33
2022-12-02T00:31:08.734Z,36.45
2022-12-02T00:36:02.093Z,39.13
2022-12-02T00:40:55.417Z,36.40
2022-12-02T00:46:07.431Z,39.20
2022-12-02T00:50:59.790Z,46.55
2022-12-02T00:55:53.444Z,42.42
2022-12-02T01:00:47.619Z,41.30
2022-12-02T01:05:41.175Z,42.13
2022-12-02T01:10:34.926Z,42.70
2022-12-02T01:15:28.188Z,41.22
2022-12-02T01:20:20.764Z,41.67
2022-12-02T01:25:15.316Z,46.42
2022-12-02T01:30:11.585Z,41.15
2022-12-02T01:35:06.938Z,41.05
2022-12-02T01:40:00.531Z,41.67
2022-12-02T01:44:54.298Z,41.88
2022-12-02T01:49:47.780Z,43.40
2022-12-02T01:54:43.485Z,42.58
2022-12-02T01:59:37.212Z,40.42
2022-12-02T02:04:30.618Z,42.15
2022-12-02T02:09:24.385Z,38.88
2022-12-02T02:14:17.441Z,39.47
2022-12-02T02:19:14.028Z,37.65
2022-12-02T02:24:07.905Z,39.05
2022-12-02T02:29:02.933Z,37.90
2022-12-02T02:33:57.433Z,37.35
2022-12-02T02:38:52.065Z,43.05
2022-12-02T02:43:45.902Z,39.63
2022-12-02T02:48:40.430Z,39.13
2022-12-02T02:53:33.748Z,41.50
2022-12-02T02:58:28.870Z,38.15
2022-12-02T03:03:25.103Z,41.25
2022-12-02T03:08:19.280Z,41.35
2022-12-02T03:13:13.269Z,38.95
2022-12-02T03:18:08.029Z,43.70
2022-12-02T03:23:02.590Z,42.55
2022-12-02T03:27:56.687Z,41.88
2022-12-02T03:32:50.201Z,43.10
2022-12-02T03:37:43.409Z,40.55
2022-12-02T03:42:36.858Z,45.08
2022-12-02T03:47:30.412Z,42.72
2022-12-02T03:52:23.812Z,42.60
2022-12-02T03:57:18.068Z,40.28
2022-12-02T04:02:12.622Z,45.10
2022-12-02T04:07:07.218Z,45.15
2022-12-02T04:12:01.459Z,43.33
2022-12-02T04:16:55.391Z,40.22
2022-12-02T04:21:49.719Z,38.83
2022-12-02T04:26:44.288Z,41.92
2022-12-02T04:31:37.798Z,42.40
2022-12-02T04:36:32.348Z,39.40
2022-12-02T04:41:25.733Z,40.38
2022-12-02T04:46:19.704Z,37.78
2022-12-02T04:51:13.956Z,38.95
2022-12-02T04:56:09.907Z,36.13
2022-12-02T05:01:03.714Z,34.97
2022-12-02T05:05:56.939Z,34.13
2022-12-02T05:10:54.771Z,34.13
2022-12-02T05:15:48.776Z,34.13
2022-12-02T05:20:42.309Z,33.60
2022-12-02T05:25:36.042Z,33.13
2022-12-02T05:30:30.157Z,33.22
2022-12-02T05:35:24.109Z,33.13
2022-12-02T05:40:17.710Z,32.78
2022-12-02T05:45:27.726Z,31.40
2022-12-02T05:50:21.286Z,30.58
2022-12-02T05:55:21.817Z,31.45
2022-12-02T06:00:20.348Z,30.10
2022-12-02T06:05:42.269Z,28.97
2022-12-02T06:10:38.258Z,29.35
2022-12-02T06:15:36.500Z,24.88
2022-12-02T06:20:34.350Z,25.33
2022-12-02T06:25:32.674Z,25.00
2022-12-02T06:30:26.574Z,25.20
2022-12-02T06:35:23.353Z,26.85
2022-12-02T06:40:31.854Z,29.17
2022-12-02T06:45:32.476Z,27.75
2022-12-02T06:50:31.403Z,26.65
2022-12-02T07:00:19.392Z,25.25
2022-12-02T07:05:20.157Z,26.67
2022-12-02T07:10:31.420Z,28.98
2022-12-02T07:15:37.086Z,29.15
2022-12-02T07:20:34.498Z,27.80
2022-12-02T07:25:45.750Z,24.08
2022-12-02T07:30:42.184Z,18.63
2022-12-02T07:35:35.716Z,18.45
2022-12-02T07:40:29.565Z,17.45
2022-12-02T07:45:23.804Z,15.95
2022-12-02T07:50:19.250Z,16.63
2022-12-02T07:55:12.232Z,13.68
2022-12-02T08:00:07.501Z,9.73
2022-12-02T08:05:09.291Z,8.48
2022-12-02T08:10:03.662Z,9.02
2022-12-02T08:14:57.078Z,10.43
2022-12-02T08:19:50.694Z,9.15
2022-12-02T08:24:44.106Z,8.63
2022-12-02T08:29:38.301Z,11.32
2022-12-02T08:34:31.566Z,8.75
2022-12-02T08:39:25.470Z,9.32
2022-12-02T08:44:19.604Z,9.80
2022-12-02T08:49:12.875Z,7.18
2022-12-02T08:54:06.540Z,7.75
2022-12-02T08:58:59.901Z,6.25
2022-12-02T09:03:53.679Z,6.85
2022-12-02T09:08:47.654Z,7.57
2022-12-02T09:13:41.628Z,7.03
2022-12-02T09:18:35.240Z,7.32
2022-12-02T09:23:29.988Z,7.47
2022-12-02T09:28:24.106Z,6.18
2022-12-02T09:33:18.181Z,6.90
2022-12-02T09:38:12.290Z,8.13
2022-12-02T09:43:06.332Z,9.65
2022-12-02T09:48:03.605Z,8.73
2022-12-02T09:53:07.416Z,9.75
2022-12-02T09:58:19.580Z,8.27
2022-12-02T10:03:19.261Z,8.10
2022-12-02T10:08:18.085Z,8.95
2022-12-02T10:13:18.669Z,11.20
2022-12-02T10:18:20.641Z,10.43
2022-12-02T10:23:13.435Z,11.13
2022-12-02T10:28:09.465Z,10.32
2022-12-02T10:33:05.987Z,11.43
2022-12-02T10:37:59.670Z,10.27
2022-12-02T10:43:09.246Z,10.35
2022-12-02T10:48:19.534Z,9.77
2022-12-02T10:53:16.758Z,10.75
2022-12-02T10:58:16.709Z,10.07
2022-12-02T11:08:19.517Z,9.48
2022-12-02T11:13:12.766Z,9.88
2022-12-02T11:18:09.134Z,10.50
2022-12-02T11:23:01.585Z,10.88
2022-12-02T11:28:16.026Z,10.07
2022-12-02T11:33:13.466Z,10.23
2022-12-02T11:38:20.923Z,10.13
2022-12-02T11:43:42.275Z,10.50
2022-12-02T11:48:47.814Z,9.82
2022-12-02T11:53:40.627Z,10.32
2022-12-02T11:58:35.706Z,10.55
2022-12-02T12:03:29.744Z,10.05
2022-12-02T12:08:26.488Z,9.35
2022-12-02T12:13:24.401Z,11.55
2022-12-02T12:19:04.665Z,9.80
2022-12-02T12:24:20.270Z,8.75
2022-12-02T12:29:13.521Z,9.40
2022-12-02T12:34:08.113Z,12.63
2022-12-02T12:39:02.098Z,11.98
2022-12-02T12:43:56.603Z,12.10
2022-12-02T12:49:10.237Z,12.73
2022-12-02T12:54:23.479Z,14.20
2022-12-02T12:59:17.809Z,13.73
2022-12-02T13:04:12.131Z,16.45
2022-12-02T13:09:05.745Z,14.88
2022-12-02T13:13:59.933Z,17.73
2022-12-02T13:18:54.193Z,17.50
2022-12-02T13:23:47.321Z,18.23
2022-12-02T13:28:41.542Z,16.73
2022-12-02T13:33:35.364Z,17.73
2022-12-02T13:38:29.159Z,19.40
2022-12-02T13:43:23.393Z,18.13
2022-12-02T13:48:16.860Z,17.08
2022-12-02T13:53:12.221Z,18.80
2022-12-02T13:58:06.704Z,18.85
2022-12-02T14:02:59.855Z,20.70
2022-12-02T14:07:54.222Z,22.23
2022-12-02T14:12:48.212Z,19.65
2022-12-02T14:17:41.590Z,19.45
2022-12-02T14:22:35.442Z,15.85
2022-12-02T14:27:28.690Z,14.73
2022-12-02T14:32:22.887Z,15.20
2022-12-02T14:37:16.779Z,15.45
2022-12-02T14:42:11.002Z,15.43
2022-12-02T14:47:04.777Z,16.00
2022-12-02T14:51:58.101Z,12.38
2022-12-02T14:56:52.628Z,12.68
2022-12-02T15:01:46.165Z,11.23
2022-12-02T15:06:40.367Z,11.98
2022-12-02T15:11:34.329Z,11.45
2022-12-02T15:16:28.466Z,12.10
2022-12-02T15:21:22.429Z,11.10
2022-12-02T15:26:16.607Z,11.93
2022-12-02T15:31:10.790Z,11.18
2022-12-02T15:36:05.790Z,12.95
2022-12-02T15:40:59.578Z,10.95
2022-12-02T15:45:54.425Z,12.60
2022-12-02T15:50:53.185Z,13.02
2022-12-02T15:55:48.991Z,13.35
2022-12-02T16:00:43.094Z,13.70
2022-12-02T16:05:36.588Z,14.80
2022-12-02T16:10:30.361Z,14.48
2022-12-02T16:15:23.858Z,12.63
2022-12-02T16:20:18.098Z,12.65
2022-12-02T16:25:11.129Z,13.63
2022-12-02T16:30:05.960Z,12.88
2022-12-02T16:34:59.505Z,15.20
2022-12-02T16:39:53.432Z,15.02
2022-12-02T16:44:51.987Z,15.52
2022-12-02T16:49:49.742Z,16.67
2022-12-02T16:54:43.814Z,14.38
2022-12-02T16:59:37.426Z,15.95
2022-12-02T17:04:30.958Z,15.80
2022-12-02T17:09:24.530Z,14.23
2022-12-02T17:14:17.857Z,15.30
2022-12-02T17:19:11.338Z,14.10
2022-12-02T17:24:05.529Z,24.15
2022-12-02T17:29:02.479Z,18.80
2022-12-02T17:33:56.424Z,18.60
2022-12-02T17:38:56.886Z,15.13
2022-12-02T17:43:52.393Z,17.75
2022-12-02T17:48:45.877Z,16.77
2022-12-02T17:53:39.663Z,15.30
2022-12-02T17:58:33.322Z,15.48
2022-12-02T18:03:27.448Z,20.52
2022-12-02T18:08:21.305Z,18.23
2022-12-02T18:13:14.486Z,16.10
2022-12-02T18:18:07.705Z,15.32
2022-12-02T18:23:01.696Z,16.63
2022-12-02T18:27:54.876Z,16.23
2022-12-02T18:32:49.992Z,14.50
2022-12-02T18:37:45.850Z,13.77
2022-12-02T18:42:40.697Z,14.90
2022-12-02T18:47:39.338Z,13.65
2022-12-02T18:52:32.802Z,14.30
2022-12-02T18:57:26.574Z,13.93
2022-12-02T19:02:22.182Z,16.27
2022-12-02T19:07:16.818Z,16.48
2022-12-02T19:12:10.330Z,13.75
2022-12-02T19:17:03.797Z,13.88
2022-12-02T19:21:56.730Z,14.13
2022-12-02T19:26:51.961Z,13.57
2022-12-02T19:31:46.032Z,14.50
2022-12-02T19:36:41.990Z,13.30
2022-12-02T19:41:37.456Z,13.98
2022-12-02T19:46:30.556Z,14.10
2022-12-02T19:51:24.678Z,14.32
2022-12-02T19:56:19.247Z,14.40
2022-12-02T20:01:13.324Z,13.85
2022-12-02T20:06:08.617Z,14.88
2022-12-02T20:11:02.180Z,14.80
2022-12-02T20:15:58.502Z,15.75
2022-12-02T20:20:52.320Z,17.30
2022-12-02T20:25:47.033Z,15.40
2022-12-02T20:30:41.948Z,15.07
2022-12-02T20:35:36.240Z,14.55
2022-12-02T20:40:29.523Z,15.02
2022-12-02T20:45:23.959Z,15.93
2022-12-02T20:50:19.050Z,15.15
2022-12-02T20:55:12.482Z,16.83
2022-12-02T21:00:09.935Z,17.63
2022-12-02T21:05:04.633Z,17.98
2022-12-02T21:09:58.889Z,15.45
2022-12-02T21:14:52.828Z,14.98
2022-12-02T21:19:47.413Z,16.60
2022-12-02T21:24:41.156Z,18.10
2022-12-02T21:29:34.094Z,19.65
2022-12-02T21:34:27.547Z,18.83
2022-12-02T21:39:21.806Z,17.63
2022-12-02T21:44:15.799Z,16.73
2022-12-02T21:49:10.088Z,17.40
2022-12-02T21:54:03.270Z,17.67
2022-12-02T21:58:57.684Z,17.17
2022-12-02T22:03:52.288Z,18.67
2022-12-02T22:08:45.243Z,18.27
2022-12-02T22:13:39.306Z,17.98
2022-12-02T22:18:33.551Z,19.17
2022-12-02T22:23:27.019Z,18.80
2022-12-02T22:28:20.086Z,18.67
2022-12-02T22:33:13.670Z,20.27
2022-12-02T22:38:07.121Z,19.27
2022-12-02T22:43:01.297Z,20.25
2022-12-02T22:47:55.550Z,22.30
2022-12-02T22:52:49.486Z,22.38
2022-12-02T22:57:43.713Z,21.88
2022-12-02T23:02:37.096Z,20.85
2022-12-02T23:07:31.363Z,22.95
2022-12-02T23:12:26.220Z,25.88
2022-12-02T23:17:19.646Z,21.25
2022-12-02T23:22:13.455Z,19.70
2022-12-02T23:27:07.436Z,19.65
2022-12-02T23:32:01.144Z,19.95
2022-12-02T23:36:54.742Z,18.80
2022-12-02T23:41:49.090Z,19.80
2022-12-02T23:46:43.833Z,18.90
2022-12-02T23:51:38.127Z,18.13
2022-12-02T23:56:31.939Z,16.73
